sensor_id;sensor_type;location;lat;lon;timestamp;P1;durP1;ratioP1;P2;durP2;ratioP2
75837;SDS011;64480;52.040;113.502;2023-06-26T00:02:41;18.88;;;10.30;;
75837;SDS011;64480;52.040;113.502;2023-06-26T00:05:45;31.42;;;13.20;;
75837;SDS011;64480;52.040;113.502;2023-06-26T00:08:49;16.98;;;10.43;;
75837;SDS011;64480;52.040;113.502;2023-06-26T00:11:53;21.10;;;14.85;;
75837;SDS011;64480;52.040;113.502;2023-06-26T00:14:56;19.83;;;11.23;;
75837;SDS011;64480;52.040;113.502;2023-06-26T00:18:03;14.45;;;10.50;;
75837;SDS011;64480;52.040;113.502;2023-06-26T00:21:07;24.60;;;13.75;;
75837;SDS011;64480;52.040;113.502;2023-06-26T00:24:10;18.98;;;13.65;;
75837;SDS011;64480;52.040;113.502;2023-06-26T00:27:15;20.25;;;12.90;;
75837;SDS011;64480;52.040;113.502;2023-06-26T00:30:24;20.60;;;13.38;;
75837;SDS011;64480;52.040;113.502;2023-06-26T00:33:28;17.65;;;13.13;;
75837;SDS011;64480;52.040;113.502;2023-06-26T00:36:31;18.35;;;13.05;;
75837;SDS011;64480;52.040;113.502;2023-06-26T00:43:23;28.85;;;13.80;;
75837;SDS011;64480;52.040;113.502;2023-06-26T00:46:28;18.20;;;12.05;;
75837;SDS011;64480;52.040;113.502;2023-06-26T00:49:32;22.80;;;13.15;;
75837;SDS011;64480;52.040;113.502;2023-06-26T00:52:36;17.80;;;10.35;;
75837;SDS011;64480;52.040;113.502;2023-06-26T00:55:40;22.05;;;10.10;;
75837;SDS011;64480;52.040;113.502;2023-06-26T00:58:44;20.40;;;13.57;;
75837;SDS011;64480;52.040;113.502;2023-06-26T01:01:48;15.40;;;9.57;;
75837;SDS011;64480;52.040;113.502;2023-06-26T01:04:52;9.23;;;7.97;;
75837;SDS011;64480;52.040;113.502;2023-06-26T01:07:56;27.27;;;12.38;;
75837;SDS011;64480;52.040;113.502;2023-06-26T01:11:01;14.48;;;8.90;;
75837;SDS011;64480;52.040;113.502;2023-06-26T01:14:05;16.45;;;9.05;;
75837;SDS011;64480;52.040;113.502;2023-06-26T01:17:09;15.55;;;8.65;;
75837;SDS011;64480;52.040;113.502;2023-06-26T01:20:19;14.60;;;9.45;;
75837;SDS011;64480;52.040;113.502;2023-06-26T01:23:42;11.55;;;8.07;;
75837;SDS011;64480;52.040;113.502;2023-06-26T01:27:12;18.45;;;9.63;;
75837;SDS011;64480;52.040;113.502;2023-06-26T01:30:17;11.75;;;8.43;;
75837;SDS011;64480;52.040;113.502;2023-06-26T01:33:21;17.90;;;9.68;;
75837;SDS011;64480;52.040;113.502;2023-06-26T01:36:26;12.90;;;8.20;;
75837;SDS011;64480;52.040;113.502;2023-06-26T01:39:32;12.27;;;7.07;;
75837;SDS011;64480;52.040;113.502;2023-06-26T01:42:36;9.52;;;7.13;;
75837;SDS011;64480;52.040;113.502;2023-06-26T01:45:39;15.30;;;8.38;;
75837;SDS011;64480;52.040;113.502;2023-06-26T01:48:46;8.38;;;6.93;;
75837;SDS011;64480;52.040;113.502;2023-06-26T01:55:16;15.57;;;8.60;;
75837;SDS011;64480;52.040;113.502;2023-06-26T01:58:43;10.77;;;7.20;;
75837;SDS011;64480;52.040;113.502;2023-06-26T02:01:48;12.40;;;7.13;;
75837;SDS011;64480;52.040;113.502;2023-06-26T02:04:52;12.93;;;7.35;;
75837;SDS011;64480;52.040;113.502;2023-06-26T02:07:55;13.38;;;7.20;;
75837;SDS011;64480;52.040;113.502;2023-06-26T02:10:59;8.57;;;6.93;;
75837;SDS011;64480;52.040;113.502;2023-06-26T02:14:03;16.08;;;7.95;;
75837;SDS011;64480;52.040;113.502;2023-06-26T02:17:06;13.50;;;6.63;;
75837;SDS011;64480;52.040;113.502;2023-06-26T02:20:11;9.73;;;6.60;;
75837;SDS011;64480;52.040;113.502;2023-06-26T02:23:14;9.07;;;5.95;;
75837;SDS011;64480;52.040;113.502;2023-06-26T02:26:18;11.88;;;6.93;;
75837;SDS011;64480;52.040;113.502;2023-06-26T02:29:21;9.02;;;5.70;;
75837;SDS011;64480;52.040;113.502;2023-06-26T02:32:24;10.55;;;5.63;;
75837;SDS011;64480;52.040;113.502;2023-06-26T02:35:28;9.40;;;6.30;;
75837;SDS011;64480;52.040;113.502;2023-06-26T02:38:31;10.68;;;6.35;;
75837;SDS011;64480;52.040;113.502;2023-06-26T02:41:36;12.15;;;6.72;;
75837;SDS011;64480;52.040;113.502;2023-06-26T02:44:39;8.27;;;5.85;;
75837;SDS011;64480;52.040;113.502;2023-06-26T02:47:43;9.75;;;5.97;;
75837;SDS011;64480;52.040;113.502;2023-06-26T02:50:47;10.45;;;6.70;;
75837;SDS011;64480;52.040;113.502;2023-06-26T02:53:50;12.35;;;6.90;;
75837;SDS011;64480;52.040;113.502;2023-06-26T02:56:53;10.98;;;6.60;;
75837;SDS011;64480;52.040;113.502;2023-06-26T03:00:03;9.02;;;6.50;;
75837;SDS011;64480;52.040;113.502;2023-06-26T03:03:15;8.85;;;6.90;;
75837;SDS011;64480;52.040;113.502;2023-06-26T03:06:18;14.25;;;6.80;;
75837;SDS011;64480;52.040;113.502;2023-06-26T03:09:22;8.88;;;6.00;;
75837;SDS011;64480;52.040;113.502;2023-06-26T03:12:25;7.32;;;5.97;;
75837;SDS011;64480;52.040;113.502;2023-06-26T03:15:29;9.82;;;6.55;;
75837;SDS011;64480;52.040;113.502;2023-06-26T03:18:32;9.82;;;6.25;;
75837;SDS011;64480;52.040;113.502;2023-06-26T03:21:35;8.65;;;5.70;;
75837;SDS011;64480;52.040;113.502;2023-06-26T03:24:39;11.05;;;6.57;;
75837;SDS011;64480;52.040;113.502;2023-06-26T03:27:43;9.13;;;6.30;;
75837;SDS011;64480;52.040;113.502;2023-06-26T03:30:48;11.55;;;7.43;;
75837;SDS011;64480;52.040;113.502;2023-06-26T03:33:52;9.88;;;6.03;;
75837;SDS011;64480;52.040;113.502;2023-06-26T03:36:56;10.90;;;6.13;;
75837;SDS011;64480;52.040;113.502;2023-06-26T03:39:59;6.97;;;5.97;;
75837;SDS011;64480;52.040;113.502;2023-06-26T03:43:03;6.82;;;5.60;;
75837;SDS011;64480;52.040;113.502;2023-06-26T03:46:17;9.45;;;5.82;;
75837;SDS011;64480;52.040;113.502;2023-06-26T03:49:21;9.13;;;5.60;;
75837;SDS011;64480;52.040;113.502;2023-06-26T03:52:26;11.60;;;5.88;;
75837;SDS011;64480;52.040;113.502;2023-06-26T03:55:29;8.60;;;5.63;;
75837;SDS011;64480;52.040;113.502;2023-06-26T03:58:33;7.00;;;5.68;;
75837;SDS011;64480;52.040;113.502;2023-06-26T04:01:37;9.98;;;5.03;;
75837;SDS011;64480;52.040;113.502;2023-06-26T04:04:41;10.20;;;5.78;;
75837;SDS011;64480;52.040;113.502;2023-06-26T04:07:44;8.13;;;5.72;;
75837;SDS011;64480;52.040;113.502;2023-06-26T04:10:48;9.30;;;5.40;;
75837;SDS011;64480;52.040;113.502;2023-06-26T04:13:54;8.82;;;5.40;;
75837;SDS011;64480;52.040;113.502;2023-06-26T04:16:59;14.27;;;6.65;;
75837;SDS011;64480;52.040;113.502;2023-06-26T04:20:05;11.30;;;7.05;;
75837;SDS011;64480;52.040;113.502;2023-06-26T04:23:09;10.80;;;6.63;;
75837;SDS011;64480;52.040;113.502;2023-06-26T04:26:13;9.07;;;5.38;;
75837;SDS011;64480;52.040;113.502;2023-06-26T04:29:17;9.18;;;6.00;;
75837;SDS011;64480;52.040;113.502;2023-06-26T04:32:20;11.50;;;6.18;;
75837;SDS011;64480;52.040;113.502;2023-06-26T04:35:23;14.23;;;7.70;;
75837;SDS011;64480;52.040;113.502;2023-06-26T04:38:27;9.40;;;5.25;;
75837;SDS011;64480;52.040;113.502;2023-06-26T04:41:30;7.95;;;5.60;;
75837;SDS011;64480;52.040;113.502;2023-06-26T04:44:33;11.10;;;5.57;;
75837;SDS011;64480;52.040;113.502;2023-06-26T04:47:37;8.68;;;5.72;;
75837;SDS011;64480;52.040;113.502;2023-06-26T04:50:42;9.95;;;5.57;;
75837;SDS011;64480;52.040;113.502;2023-06-26T04:53:45;8.40;;;5.15;;
75837;SDS011;64480;52.040;113.502;2023-06-26T04:56:48;8.25;;;5.40;;
75837;SDS011;64480;52.040;113.502;2023-06-26T04:59:53;8.35;;;5.07;;
75837;SDS011;64480;52.040;113.502;2023-06-26T05:02:57;6.97;;;5.28;;
75837;SDS011;64480;52.040;113.502;2023-06-26T05:06:03;8.07;;;4.80;;
75837;SDS011;64480;52.040;113.502;2023-06-26T05:09:12;9.27;;;5.45;;
75837;SDS011;64480;52.040;113.502;2023-06-26T05:12:30;13.32;;;5.50;;
75837;SDS011;64480;52.040;113.502;2023-06-26T05:15:43;6.60;;;4.65;;
75837;SDS011;64480;52.040;113.502;2023-06-26T05:18:47;6.65;;;5.07;;
75837;SDS011;64480;52.040;113.502;2023-06-26T05:21:50;9.90;;;4.70;;
75837;SDS011;64480;52.040;113.502;2023-06-26T05:24:55;7.13;;;4.32;;
75837;SDS011;64480;52.040;113.502;2023-06-26T05:28:01;9.57;;;4.78;;
75837;SDS011;64480;52.040;113.502;2023-06-26T05:31:10;5.70;;;4.68;;
75837;SDS011;64480;52.040;113.502;2023-06-26T05:34:14;8.45;;;4.85;;
75837;SDS011;64480;52.040;113.502;2023-06-26T05:37:20;6.82;;;4.55;;
75837;SDS011;64480;52.040;113.502;2023-06-26T05:40:27;5.90;;;4.70;;
75837;SDS011;64480;52.040;113.502;2023-06-26T05:43:31;6.47;;;4.70;;
75837;SDS011;64480;52.040;113.502;2023-06-26T05:46:34;5.82;;;4.20;;
75837;SDS011;64480;52.040;113.502;2023-06-26T05:49:40;7.63;;;4.72;;
75837;SDS011;64480;52.040;113.502;2023-06-26T05:52:46;10.98;;;5.50;;
75837;SDS011;64480;52.040;113.502;2023-06-26T05:55:50;6.43;;;4.85;;
75837;SDS011;64480;52.040;113.502;2023-06-26T05:58:54;12.02;;;4.93;;
75837;SDS011;64480;52.040;113.502;2023-06-26T06:01:58;6.05;;;5.45;;
75837;SDS011;64480;52.040;113.502;2023-06-26T06:05:01;6.70;;;4.32;;
75837;SDS011;64480;52.040;113.502;2023-06-26T06:08:05;8.18;;;4.75;;
75837;SDS011;64480;52.040;113.502;2023-06-26T06:11:08;7.32;;;4.90;;
75837;SDS011;64480;52.040;113.502;2023-06-26T06:14:14;6.10;;;4.35;;
75837;SDS011;64480;52.040;113.502;2023-06-26T06:17:19;8.52;;;6.75;;
75837;SDS011;64480;52.040;113.502;2023-06-26T06:20:25;8.90;;;4.75;;
75837;SDS011;64480;52.040;113.502;2023-06-26T06:23:29;12.25;;;4.88;;
75837;SDS011;64480;52.040;113.502;2023-06-26T06:26:32;6.88;;;4.80;;
75837;SDS011;64480;52.040;113.502;2023-06-26T06:29:36;8.90;;;5.63;;
75837;SDS011;64480;52.040;113.502;2023-06-26T06:32:39;6.22;;;4.28;;
75837;SDS011;64480;52.040;113.502;2023-06-26T06:35:46;12.00;;;4.90;;
75837;SDS011;64480;52.040;113.502;2023-06-26T06:38:53;11.02;;;4.72;;
75837;SDS011;64480;52.040;113.502;2023-06-26T06:41:56;6.63;;;4.85;;
75837;SDS011;64480;52.040;113.502;2023-06-26T06:45:01;6.00;;;4.65;;
75837;SDS011;64480;52.040;113.502;2023-06-26T06:48:05;6.75;;;4.47;;
75837;SDS011;64480;52.040;113.502;2023-06-26T06:51:09;5.70;;;4.30;;
75837;SDS011;64480;52.040;113.502;2023-06-26T06:54:15;7.43;;;4.43;;
75837;SDS011;64480;52.040;113.502;2023-06-26T06:57:20;9.27;;;4.93;;
75837;SDS011;64480;52.040;113.502;2023-06-26T07:00:24;6.30;;;4.45;;
75837;SDS011;64480;52.040;113.502;2023-06-26T07:03:27;5.22;;;4.22;;
75837;SDS011;64480;52.040;113.502;2023-06-26T07:06:31;6.22;;;4.55;;
75837;SDS011;64480;52.040;113.502;2023-06-26T07:09:34;8.30;;;4.53;;
75837;SDS011;64480;52.040;113.502;2023-06-26T07:12:39;5.82;;;4.60;;
75837;SDS011;64480;52.040;113.502;2023-06-26T07:15:42;6.40;;;4.80;;
75837;SDS011;64480;52.040;113.502;2023-06-26T07:18:46;8.25;;;5.55;;
75837;SDS011;64480;52.040;113.502;2023-06-26T07:21:51;7.20;;;5.32;;
75837;SDS011;64480;52.040;113.502;2023-06-26T07:24:55;6.72;;;5.30;;
75837;SDS011;64480;52.040;113.502;2023-06-26T07:27:59;9.05;;;4.38;;
75837;SDS011;64480;52.040;113.502;2023-06-26T07:31:02;7.13;;;4.80;;
75837;SDS011;64480;52.040;113.502;2023-06-26T07:34:06;5.00;;;4.20;;
75837;SDS011;64480;52.040;113.502;2023-06-26T07:37:09;7.63;;;4.93;;
75837;SDS011;64480;52.040;113.502;2023-06-26T07:40:13;7.28;;;4.00;;
75837;SDS011;64480;52.040;113.502;2023-06-26T07:43:16;6.70;;;4.38;;
75837;SDS011;64480;52.040;113.502;2023-06-26T07:46:19;5.50;;;4.38;;
75837;SDS011;64480;52.040;113.502;2023-06-26T07:49:23;7.80;;;4.70;;
75837;SDS011;64480;52.040;113.502;2023-06-26T07:52:26;5.72;;;4.72;;
75837;SDS011;64480;52.040;113.502;2023-06-26T07:55:30;6.35;;;5.03;;
75837;SDS011;64480;52.040;113.502;2023-06-26T07:58:33;6.53;;;4.55;;
75837;SDS011;64480;52.040;113.502;2023-06-26T08:01:38;8.52;;;4.50;;
75837;SDS011;64480;52.040;113.502;2023-06-26T08:04:41;6.30;;;4.47;;
75837;SDS011;64480;52.040;113.502;2023-06-26T08:07:46;6.30;;;4.38;;
75837;SDS011;64480;52.040;113.502;2023-06-26T08:10:49;7.30;;;4.72;;
75837;SDS011;64480;52.040;113.502;2023-06-26T08:13:53;6.05;;;4.30;;
75837;SDS011;64480;52.040;113.502;2023-06-26T08:16:57;4.68;;;4.20;;
75837;SDS011;64480;52.040;113.502;2023-06-26T08:20:02;5.82;;;3.97;;
75837;SDS011;64480;52.040;113.502;2023-06-26T08:23:06;7.22;;;3.83;;
75837;SDS011;64480;52.040;113.502;2023-06-26T08:26:09;4.70;;;4.22;;
75837;SDS011;64480;52.040;113.502;2023-06-26T08:29:13;9.25;;;4.30;;
75837;SDS011;64480;52.040;113.502;2023-06-26T08:32:20;5.63;;;4.35;;
75837;SDS011;64480;52.040;113.502;2023-06-26T08:35:24;4.57;;;3.95;;
75837;SDS011;64480;52.040;113.502;2023-06-26T08:38:27;6.20;;;4.15;;
75837;SDS011;64480;52.040;113.502;2023-06-26T08:41:31;6.95;;;4.28;;
75837;SDS011;64480;52.040;113.502;2023-06-26T08:44:35;10.05;;;4.20;;
75837;SDS011;64480;52.040;113.502;2023-06-26T08:47:51;9.45;;;4.63;;
75837;SDS011;64480;52.040;113.502;2023-06-26T08:50:58;6.93;;;4.22;;
75837;SDS011;64480;52.040;113.502;2023-06-26T08:54:07;4.68;;;3.88;;
75837;SDS011;64480;52.040;113.502;2023-06-26T08:57:17;9.20;;;4.53;;
75837;SDS011;64480;52.040;113.502;2023-06-26T09:00:21;6.38;;;3.95;;
75837;SDS011;64480;52.040;113.502;2023-06-26T09:03:25;7.57;;;4.00;;
75837;SDS011;64480;52.040;113.502;2023-06-26T09:06:29;7.95;;;4.32;;
75837;SDS011;64480;52.040;113.502;2023-06-26T09:09:33;8.23;;;4.43;;
75837;SDS011;64480;52.040;113.502;2023-06-26T09:12:37;9.88;;;4.28;;
75837;SDS011;64480;52.040;113.502;2023-06-26T09:15:44;8.65;;;4.38;;
75837;SDS011;64480;52.040;113.502;2023-06-26T09:18:48;7.38;;;5.38;;
75837;SDS011;64480;52.040;113.502;2023-06-26T09:21:54;6.72;;;4.72;;
75837;SDS011;64480;52.040;113.502;2023-06-26T09:24:58;6.88;;;4.43;;
75837;SDS011;64480;52.040;113.502;2023-06-26T09:28:01;5.47;;;4.10;;
75837;SDS011;64480;52.040;113.502;2023-06-26T09:31:05;8.38;;;5.00;;
75837;SDS011;64480;52.040;113.502;2023-06-26T09:34:10;6.43;;;4.20;;
75837;SDS011;64480;52.040;113.502;2023-06-26T09:37:14;12.32;;;4.25;;
75837;SDS011;64480;52.040;113.502;2023-06-26T09:40:17;5.72;;;3.60;;
75837;SDS011;64480;52.040;113.502;2023-06-26T09:43:21;6.25;;;3.90;;
75837;SDS011;64480;52.040;113.502;2023-06-26T09:46:25;13.80;;;4.35;;
75837;SDS011;64480;52.040;113.502;2023-06-26T09:49:29;7.85;;;4.05;;
75837;SDS011;64480;52.040;113.502;2023-06-26T09:52:34;5.88;;;3.83;;
75837;SDS011;64480;52.040;113.502;2023-06-26T09:55:40;7.97;;;4.35;;
75837;SDS011;64480;52.040;113.502;2023-06-26T09:58:46;5.18;;;3.88;;
75837;SDS011;64480;52.040;113.502;2023-06-26T10:01:58;5.00;;;3.45;;
75837;SDS011;64480;52.040;113.502;2023-06-26T10:05:02;5.65;;;3.38;;
75837;SDS011;64480;52.040;113.502;2023-06-26T10:08:06;5.45;;;3.30;;
75837;SDS011;64480;52.040;113.502;2023-06-26T10:11:11;5.53;;;3.60;;
75837;SDS011;64480;52.040;113.502;2023-06-26T10:14:20;6.95;;;3.60;;
75837;SDS011;64480;52.040;113.502;2023-06-26T10:17:28;6.18;;;3.28;;
75837;SDS011;64480;52.040;113.502;2023-06-26T10:20:36;6.20;;;3.40;;
75837;SDS011;64480;52.040;113.502;2023-06-26T10:23:41;7.22;;;3.63;;
75837;SDS011;64480;52.040;113.502;2023-06-26T10:26:46;8.45;;;3.50;;
75837;SDS011;64480;52.040;113.502;2023-06-26T10:29:56;9.27;;;3.83;;
75837;SDS011;64480;52.040;113.502;2023-06-26T10:36:13;5.78;;;3.30;;
75837;SDS011;64480;52.040;113.502;2023-06-26T10:39:18;6.65;;;3.72;;
75837;SDS011;64480;52.040;113.502;2023-06-26T10:42:36;9.00;;;3.83;;
75837;SDS011;64480;52.040;113.502;2023-06-26T10:45:46;5.32;;;2.85;;
75837;SDS011;64480;52.040;113.502;2023-06-26T10:49:00;7.22;;;3.70;;
75837;SDS011;64480;52.040;113.502;2023-06-26T10:52:04;6.03;;;3.20;;
75837;SDS011;64480;52.040;113.502;2023-06-26T10:55:08;6.35;;;3.08;;
75837;SDS011;64480;52.040;113.502;2023-06-26T11:01:39;5.10;;;3.25;;
75837;SDS011;64480;52.040;113.502;2023-06-26T11:04:46;8.68;;;3.50;;
75837;SDS011;64480;52.040;113.502;2023-06-26T11:08:05;7.53;;;3.42;;
75837;SDS011;64480;52.040;113.502;2023-06-26T11:11:11;11.20;;;3.40;;
75837;SDS011;64480;52.040;113.502;2023-06-26T11:14:15;8.70;;;3.63;;
75837;SDS011;64480;52.040;113.502;2023-06-26T11:17:19;10.65;;;3.78;;
75837;SDS011;64480;52.040;113.502;2023-06-26T11:24:11;7.32;;;3.20;;
75837;SDS011;64480;52.040;113.502;2023-06-26T11:27:15;9.77;;;3.35;;
75837;SDS011;64480;52.040;113.502;2023-06-26T11:30:25;4.85;;;3.35;;
75837;SDS011;64480;52.040;113.502;2023-06-26T11:33:28;5.50;;;3.33;;
75837;SDS011;64480;52.040;113.502;2023-06-26T11:36:32;5.47;;;3.00;;
75837;SDS011;64480;52.040;113.502;2023-06-26T11:39:39;6.15;;;3.53;;
75837;SDS011;64480;52.040;113.502;2023-06-26T11:42:42;43.80;;;5.22;;
75837;SDS011;64480;52.040;113.502;2023-06-26T11:45:47;7.50;;;3.58;;
75837;SDS011;64480;52.040;113.502;2023-06-26T11:48:53;4.07;;;3.20;;
75837;SDS011;64480;52.040;113.502;2023-06-26T11:55:05;5.82;;;3.20;;
75837;SDS011;64480;52.040;113.502;2023-06-26T11:58:09;6.90;;;3.03;;
75837;SDS011;64480;52.040;113.502;2023-06-26T12:01:15;4.38;;;3.20;;
75837;SDS011;64480;52.040;113.502;2023-06-26T12:04:22;4.30;;;2.35;;
75837;SDS011;64480;52.040;113.502;2023-06-26T12:07:29;12.88;;;3.15;;
75837;SDS011;64480;52.040;113.502;2023-06-26T12:10:33;6.50;;;2.75;;
75837;SDS011;64480;52.040;113.502;2023-06-26T12:13:38;5.68;;;2.75;;
75837;SDS011;64480;52.040;113.502;2023-06-26T12:16:43;7.07;;;3.13;;
75837;SDS011;64480;52.040;113.502;2023-06-26T12:19:47;7.40;;;2.78;;
75837;SDS011;64480;52.040;113.502;2023-06-26T12:22:50;7.85;;;3.25;;
75837;SDS011;64480;52.040;113.502;2023-06-26T12:25:54;8.30;;;3.05;;
75837;SDS011;64480;52.040;113.502;2023-06-26T12:29:07;4.50;;;2.42;;
75837;SDS011;64480;52.040;113.502;2023-06-26T12:32:17;6.13;;;2.63;;
75837;SDS011;64480;52.040;113.502;2023-06-26T12:35:23;4.40;;;2.80;;
75837;SDS011;64480;52.040;113.502;2023-06-26T12:38:34;3.63;;;2.15;;
75837;SDS011;64480;52.040;113.502;2023-06-26T12:41:54;3.55;;;2.58;;
75837;SDS011;64480;52.040;113.502;2023-06-26T12:45:09;3.15;;;2.28;;
75837;SDS011;64480;52.040;113.502;2023-06-26T12:48:41;12.48;;;2.80;;
75837;SDS011;64480;52.040;113.502;2023-06-26T12:51:50;6.28;;;3.13;;
75837;SDS011;64480;52.040;113.502;2023-06-26T12:54:54;21.25;;;3.40;;
75837;SDS011;64480;52.040;113.502;2023-06-26T12:57:58;4.90;;;2.50;;
75837;SDS011;64480;52.040;113.502;2023-06-26T13:01:06;5.38;;;2.40;;
75837;SDS011;64480;52.040;113.502;2023-06-26T13:04:17;2.63;;;2.20;;
75837;SDS011;64480;52.040;113.502;2023-06-26T13:07:20;6.68;;;2.50;;
75837;SDS011;64480;52.040;113.502;2023-06-26T13:10:27;15.93;;;2.97;;
75837;SDS011;64480;52.040;113.502;2023-06-26T13:13:31;8.32;;;3.00;;
75837;SDS011;64480;52.040;113.502;2023-06-26T13:16:35;5.18;;;2.22;;
75837;SDS011;64480;52.040;113.502;2023-06-26T13:19:38;11.10;;;3.03;;
75837;SDS011;64480;52.040;113.502;2023-06-26T13:22:41;5.95;;;2.85;;
75837;SDS011;64480;52.040;113.502;2023-06-26T13:25:45;4.53;;;2.60;;
75837;SDS011;64480;52.040;113.502;2023-06-26T13:28:48;3.42;;;2.35;;
75837;SDS011;64480;52.040;113.502;2023-06-26T13:31:52;4.15;;;2.28;;
75837;SDS011;64480;52.040;113.502;2023-06-26T13:34:56;8.18;;;3.03;;
75837;SDS011;64480;52.040;113.502;2023-06-26T13:38:00;11.20;;;2.85;;
75837;SDS011;64480;52.040;113.502;2023-06-26T13:41:03;7.50;;;3.05;;
75837;SDS011;64480;52.040;113.502;2023-06-26T13:44:06;5.25;;;2.38;;
75837;SDS011;64480;52.040;113.502;2023-06-26T13:47:30;4.35;;;2.33;;
75837;SDS011;64480;52.040;113.502;2023-06-26T13:50:33;5.50;;;2.30;;
75837;SDS011;64480;52.040;113.502;2023-06-26T13:53:55;4.80;;;2.38;;
75837;SDS011;64480;52.040;113.502;2023-06-26T13:57:02;5.75;;;2.63;;
75837;SDS011;64480;52.040;113.502;2023-06-26T14:00:08;8.45;;;3.10;;
75837;SDS011;64480;52.040;113.502;2023-06-26T14:03:14;11.90;;;3.53;;
75837;SDS011;64480;52.040;113.502;2023-06-26T14:06:17;19.83;;;4.35;;
75837;SDS011;64480;52.040;113.502;2023-06-26T14:09:21;8.13;;;3.10;;
75837;SDS011;64480;52.040;113.502;2023-06-26T14:12:24;9.15;;;3.25;;
75837;SDS011;64480;52.040;113.502;2023-06-26T14:15:28;12.30;;;3.42;;
75837;SDS011;64480;52.040;113.502;2023-06-26T14:18:32;7.32;;;2.75;;
75837;SDS011;64480;52.040;113.502;2023-06-26T14:21:37;6.43;;;2.80;;
75837;SDS011;64480;52.040;113.502;2023-06-26T14:24:40;5.88;;;2.35;;
75837;SDS011;64480;52.040;113.502;2023-06-26T14:27:44;5.15;;;2.30;;
75837;SDS011;64480;52.040;113.502;2023-06-26T14:30:47;5.80;;;2.47;;
75837;SDS011;64480;52.040;113.502;2023-06-26T14:33:50;6.30;;;2.55;;
75837;SDS011;64480;52.040;113.502;2023-06-26T14:36:54;10.77;;;2.05;;
75837;SDS011;64480;52.040;113.502;2023-06-26T14:39:57;5.55;;;1.60;;
75837;SDS011;64480;52.040;113.502;2023-06-26T14:43:04;4.45;;;1.20;;
75837;SDS011;64480;52.040;113.502;2023-06-26T14:46:08;5.80;;;1.38;;
75837;SDS011;64480;52.040;113.502;2023-06-26T14:49:12;3.20;;;0.80;;
75837;SDS011;64480;52.040;113.502;2023-06-26T14:52:16;2.83;;;0.80;;
75837;SDS011;64480;52.040;113.502;2023-06-26T14:55:19;3.97;;;0.43;;
75837;SDS011;64480;52.040;113.502;2023-06-26T14:58:22;4.85;;;0.47;;
75837;SDS011;64480;52.040;113.502;2023-06-26T15:01:26;0.73;;;0.30;;
75837;SDS011;64480;52.040;113.502;2023-06-26T15:04:29;1.08;;;0.30;;
75837;SDS011;64480;52.040;113.502;2023-06-26T15:07:34;3.13;;;0.30;;
75837;SDS011;64480;52.040;113.502;2023-06-26T15:10:37;1.27;;;0.57;;
75837;SDS011;64480;52.040;113.502;2023-06-26T15:13:41;3.22;;;1.48;;
75837;SDS011;64480;52.040;113.502;2023-06-26T15:16:44;2.47;;;0.70;;
75837;SDS011;64480;52.040;113.502;2023-06-26T15:19:48;4.78;;;0.80;;
75837;SDS011;64480;52.040;113.502;2023-06-26T15:22:51;2.95;;;0.70;;
75837;SDS011;64480;52.040;113.502;2023-06-26T15:25:55;2.50;;;0.80;;
75837;SDS011;64480;52.040;113.502;2023-06-26T15:28:59;6.60;;;0.68;;
75837;SDS011;64480;52.040;113.502;2023-06-26T15:32:02;4.00;;;0.75;;
75837;SDS011;64480;52.040;113.502;2023-06-26T15:35:06;4.03;;;0.90;;
75837;SDS011;64480;52.040;113.502;2023-06-26T15:38:10;3.92;;;0.82;;
75837;SDS011;64480;52.040;113.502;2023-06-26T15:41:14;6.05;;;1.35;;
75837;SDS011;64480;52.040;113.502;2023-06-26T15:44:17;5.43;;;0.73;;
75837;SDS011;64480;52.040;113.502;2023-06-26T15:47:20;3.97;;;1.17;;
75837;SDS011;64480;52.040;113.502;2023-06-26T15:50:24;2.92;;;0.98;;
75837;SDS011;64480;52.040;113.502;2023-06-26T15:53:34;5.28;;;1.10;;
75837;SDS011;64480;52.040;113.502;2023-06-26T15:56:39;2.35;;;0.80;;
75837;SDS011;64480;52.040;113.502;2023-06-26T15:59:43;4.97;;;1.25;;
75837;SDS011;64480;52.040;113.502;2023-06-26T16:02:46;3.10;;;0.90;;
75837;SDS011;64480;52.040;113.502;2023-06-26T16:05:50;5.45;;;1.10;;
75837;SDS011;64480;52.040;113.502;2023-06-26T16:08:54;2.30;;;0.73;;
75837;SDS011;64480;52.040;113.502;2023-06-26T16:11:57;3.53;;;1.10;;
75837;SDS011;64480;52.040;113.502;2023-06-26T16:15:01;2.83;;;0.93;;
75837;SDS011;64480;52.040;113.502;2023-06-26T16:18:05;1.92;;;0.80;;
75837;SDS011;64480;52.040;113.502;2023-06-26T16:21:09;3.67;;;1.00;;
75837;SDS011;64480;52.040;113.502;2023-06-26T16:24:12;2.92;;;1.05;;
75837;SDS011;64480;52.040;113.502;2023-06-26T16:27:16;3.90;;;1.20;;
75837;SDS011;64480;52.040;113.502;2023-06-26T16:30:19;2.03;;;1.02;;
75837;SDS011;64480;52.040;113.502;2023-06-26T16:33:23;2.40;;;1.13;;
75837;SDS011;64480;52.040;113.502;2023-06-26T16:36:27;3.13;;;1.58;;
75837;SDS011;64480;52.040;113.502;2023-06-26T16:39:30;3.97;;;1.15;;
75837;SDS011;64480;52.040;113.502;2023-06-26T16:42:33;5.63;;;1.27;;
75837;SDS011;64480;52.040;113.502;2023-06-26T16:45:37;6.88;;;1.38;;
75837;SDS011;64480;52.040;113.502;2023-06-26T16:48:40;3.33;;;1.25;;
75837;SDS011;64480;52.040;113.502;2023-06-26T16:51:44;2.88;;;1.20;;
75837;SDS011;64480;52.040;113.502;2023-06-26T16:54:47;5.00;;;1.40;;
75837;SDS011;64480;52.040;113.502;2023-06-26T16:57:51;3.92;;;1.48;;
75837;SDS011;64480;52.040;113.502;2023-06-26T17:00:54;2.97;;;1.50;;
75837;SDS011;64480;52.040;113.502;2023-06-26T17:03:58;6.20;;;1.73;;
75837;SDS011;64480;52.040;113.502;2023-06-26T17:07:03;2.60;;;1.40;;
75837;SDS011;64480;52.040;113.502;2023-06-26T17:10:06;4.75;;;1.50;;
75837;SDS011;64480;52.040;113.502;2023-06-26T17:13:10;3.42;;;1.65;;
75837;SDS011;64480;52.040;113.502;2023-06-26T17:16:14;3.15;;;1.50;;
75837;SDS011;64480;52.040;113.502;2023-06-26T17:19:17;2.50;;;1.52;;
75837;SDS011;64480;52.040;113.502;2023-06-26T17:22:20;6.75;;;1.50;;
75837;SDS011;64480;52.040;113.502;2023-06-26T17:25:25;7.18;;;1.70;;
75837;SDS011;64480;52.040;113.502;2023-06-26T17:28:29;8.75;;;1.55;;
75837;SDS011;64480;52.040;113.502;2023-06-26T17:31:33;8.43;;;1.83;;
75837;SDS011;64480;52.040;113.502;2023-06-26T17:34:39;13.52;;;2.58;;
75837;SDS011;64480;52.040;113.502;2023-06-26T17:37:42;17.23;;;2.88;;
75837;SDS011;64480;52.040;113.502;2023-06-26T17:40:46;5.65;;;1.95;;
75837;SDS011;64480;52.040;113.502;2023-06-26T17:43:52;6.03;;;1.80;;
75837;SDS011;64480;52.040;113.502;2023-06-26T17:46:56;7.10;;;1.95;;
75837;SDS011;64480;52.040;113.502;2023-06-26T17:49:59;6.38;;;1.90;;
75837;SDS011;64480;52.040;113.502;2023-06-26T17:53:03;4.85;;;1.80;;
75837;SDS011;64480;52.040;113.502;2023-06-26T17:56:08;3.53;;;1.60;;
75837;SDS011;64480;52.040;113.502;2023-06-26T17:59:12;4.85;;;1.73;;
75837;SDS011;64480;52.040;113.502;2023-06-26T18:02:16;4.00;;;1.73;;
75837;SDS011;64480;52.040;113.502;2023-06-26T18:05:20;4.03;;;1.90;;
75837;SDS011;64480;52.040;113.502;2023-06-26T18:08:23;4.63;;;2.00;;
75837;SDS011;64480;52.040;113.502;2023-06-26T18:11:27;6.45;;;1.83;;
75837;SDS011;64480;52.040;113.502;2023-06-26T18:14:33;4.32;;;2.65;;
75837;SDS011;64480;52.040;113.502;2023-06-26T18:17:36;3.78;;;1.92;;
75837;SDS011;64480;52.040;113.502;2023-06-26T18:20:41;4.40;;;2.47;;